Aérodrome :
LOGIN :

S'inscrire | Disclaimer

   EN    FR    IT 

 










Légende :    VFR   VFR Marginal   IFR   IFR Intensif   IFR Très Intensif
Visi : 
Plafond : 
>= 8 km
>= 3000ft
5 à 8 km
1000 à 3000 ft
1500m à 5 km
500 à 1000 ft
800 à 1500m
200 à 500 ft
< 800m
< 200 ft
Symboles :   Orages  Brouillard  Fortes neiges  Fortes précipitations  Vent > 20 kt
SIGMETs :   Divers  Orages  Givrage  Turbulence  Onde Orograph.  Cendres Volcan.







- Altitude de l'aérodrome : 90 ft
- Code IATA : NTE
- Voir les cartes d'approche


LFRS - Nantes

DERNIER METAR :
  • 221930Z AUTO 24007KT 9999 BKN010 OVC100 15/13 Q1015 NOSIG

METARs EXPIRÉS :
  • 221900Z AUTO 25007KT 9999 BKN011 OVC150 15/13 Q1015 TEMPO BKN008
  • 221830Z AUTO 25006KT 9999 BKN011 OVC150 15/13 Q1014 TEMPO BKN008
  • 221800Z AUTO 24006KT 200V280 9999 BKN012 BKN110 OVC130 16/13 Q1014 TEMPO BKN008
  • 221730Z AUTO 26008KT 9999 BKN013 OVC130 16/13 Q1015 TEMPO BKN008
  • 221700Z AUTO 27009KT 9999 SCT013 OVC140 17/14 Q1014 TEMPO BKN010

TAF TAF LFRS
Valide du 22 à 18h jusqu'au 24 à 00h UTC


221700Z 2218/2324 25008KT CAVOK
TEMPO 2218/2308 BKN008
BECMG 2300/2302 VRB03KT
BECMG 2315/2317 27010KT
BECMG 2321/2323 VRB03KT
ATIS : +33 2 40 05 12 74
Pas de NOTAMs connus pour ce terrain.
1 SIGMET publié pour la FIR Brest (LFRR) :
 
Orages noyés dans la masse
LFRR SIGMET 1 VALID 221900/222100 LFPW
LFRR BREST FIR/UIR EMBD TS FCST WI N4430 W00145 - N4330 W00145 - N4400 W00330 - N4415 W00245 - N4430 W00145 TOP FL350 STNR INTSF=



MET'MAP, la Météo Aéronautique d'un coup d'oeil ! - Copyright ORBIFLY Décembre 2007 - Disclaimer

ORBIFLY MET'MAP TEAM :

Programmation & Développement : Alexandra Zaïnal
Conception & Développement : Baudouin d'Aumeries
Co-Programmation & Développement : Marc-Olivier Méhu
Soutien technique & logistique : Manuel Goepfert

Contact : metmap@orbifly.com




SOURCES & CREDITS :

   NOAA